createdAt,value
2023-08-30T00:00:33.003Z,88.65
2023-08-30T00:03:01.116Z,88.72
2023-08-30T00:05:29.627Z,86.61
2023-08-30T00:07:57.513Z,86.44
2023-08-30T00:10:25.136Z,87.57
2023-08-30T00:12:54.075Z,87.27
2023-08-30T00:15:21.792Z,86.23
2023-08-30T00:17:49.713Z,87.14
2023-08-30T00:20:17.420Z,86.65
2023-08-30T00:22:44.985Z,86.00
2023-08-30T00:25:12.549Z,86.25
2023-08-30T00:27:40.114Z,88.43
2023-08-30T00:30:10.693Z,88.43
2023-08-30T00:32:38.372Z,89.17
2023-08-30T00:35:06.805Z,87.94
2023-08-30T00:37:34.374Z,87.58
2023-08-30T00:40:02.199Z,88.09
2023-08-30T00:42:29.807Z,88.13
2023-08-30T00:44:57.414Z,88.19
2023-08-30T00:47:26.585Z,88.11
2023-08-30T00:49:54.494Z,86.03
2023-08-30T00:52:22.135Z,87.52
2023-08-30T00:54:50.062Z,89.32
2023-08-30T00:57:18.194Z,89.63
2023-08-30T00:59:45.821Z,90.36
2023-08-30T01:02:14.377Z,91.46
2023-08-30T01:04:43.335Z,89.22
2023-08-30T01:07:10.938Z,89.31
2023-08-30T01:09:38.806Z,89.13
2023-08-30T01:12:12.990Z,89.45
2023-08-30T01:14:45.922Z,86.91
2023-08-30T01:17:18.560Z,85.68
2023-08-30T01:19:53.265Z,85.07
2023-08-30T01:22:30.190Z,86.60
2023-08-30T01:25:09.596Z,84.59
2023-08-30T01:27:39.463Z,85.18
2023-08-30T01:30:09.745Z,86.33
2023-08-30T01:32:39.534Z,85.55
2023-08-30T01:35:09.619Z,84.57
2023-08-30T01:37:38.939Z,84.72
2023-08-30T01:40:09.237Z,83.96
2023-08-30T01:42:38.642Z,83.76
2023-08-30T01:45:09.336Z,85.50
2023-08-30T01:47:37.848Z,86.72
2023-08-30T01:50:06.619Z,86.14
2023-08-30T01:52:34.831Z,87.64
2023-08-30T01:55:04.194Z,87.21
2023-08-30T01:57:31.860Z,86.27
2023-08-30T02:00:00.859Z,85.47
2023-08-30T02:02:31.102Z,85.09
2023-08-30T02:04:58.780Z,84.84
2023-08-30T02:07:34.292Z,84.37
2023-08-30T02:10:04.654Z,84.18
2023-08-30T02:12:41.840Z,88.51
2023-08-30T02:15:14.100Z,86.14
2023-08-30T02:17:42.172Z,85.07
2023-08-30T02:20:10.136Z,85.63
2023-08-30T02:22:37.695Z,85.76
2023-08-30T02:25:05.817Z,85.38
2023-08-30T02:27:36.522Z,85.51
2023-08-30T02:30:04.563Z,86.08
2023-08-30T02:32:33.503Z,86.58
2023-08-30T02:35:01.065Z,86.06
2023-08-30T02:37:28.619Z,85.83
2023-08-30T02:39:56.223Z,85.31
2023-08-30T02:42:23.820Z,85.16
2023-08-30T02:44:51.382Z,85.21
2023-08-30T02:47:18.947Z,85.26
2023-08-30T02:49:47.927Z,85.28
2023-08-30T02:52:15.484Z,85.53
2023-08-30T02:54:43.046Z,85.65
2023-08-30T02:57:10.850Z,86.89
2023-08-30T02:59:38.406Z,86.15
2023-08-30T03:02:06.170Z,85.67
2023-08-30T03:04:33.808Z,85.38
2023-08-30T03:07:02.796Z,85.31
2023-08-30T03:09:30.369Z,85.04
2023-08-30T03:11:58.001Z,84.76
2023-08-30T03:14:25.801Z,85.04
2023-08-30T03:16:53.424Z,85.80
2023-08-30T03:19:20.999Z,87.56
2023-08-30T03:21:48.601Z,88.34
2023-08-30T03:24:18.653Z,89.29
2023-08-30T03:26:46.213Z,89.13
2023-08-30T03:29:13.751Z,88.62
2023-08-30T03:31:41.355Z,88.35
2023-08-30T03:34:09.000Z,87.08
2023-08-30T03:36:36.721Z,86.24
2023-08-30T03:39:04.559Z,87.96
2023-08-30T03:41:33.533Z,88.92
2023-08-30T03:44:01.151Z,89.38
2023-08-30T03:46:28.821Z,89.54
2023-08-30T03:48:57.631Z,88.60
2023-08-30T03:51:25.216Z,87.33
2023-08-30T03:53:53.135Z,87.73
2023-08-30T03:56:20.776Z,86.63
2023-08-30T03:58:49.700Z,85.82
2023-08-30T04:01:17.579Z,85.87
2023-08-30T04:03:45.313Z,85.37
2023-08-30T04:06:12.978Z,85.79
2023-08-30T04:08:40.588Z,85.70
2023-08-30T04:11:08.204Z,85.02
2023-08-30T04:13:36.363Z,85.19
2023-08-30T04:16:05.661Z,85.33
2023-08-30T04:18:33.261Z,85.55
2023-08-30T04:21:03.115Z,86.68
2023-08-30T04:23:31.175Z,85.77
2023-08-30T04:25:58.785Z,85.57
2023-08-30T04:28:27.858Z,85.21
2023-08-30T04:30:55.763Z,85.53
2023-08-30T04:33:25.146Z,85.39
2023-08-30T04:35:53.206Z,85.08
2023-08-30T04:38:20.926Z,85.50
2023-08-30T04:40:49.050Z,86.75
2023-08-30T04:43:18.915Z,86.63
2023-08-30T04:45:49.577Z,89.54
2023-08-30T04:48:17.225Z,87.80
2023-08-30T04:50:46.179Z,87.99
2023-08-30T04:53:13.768Z,88.18
2023-08-30T04:55:41.383Z,86.20
2023-08-30T04:58:09.199Z,84.52
2023-08-30T05:00:37.270Z,84.56
2023-08-30T05:03:05.383Z,84.43
2023-08-30T05:05:33.058Z,83.73
2023-08-30T05:08:02.073Z,83.60
2023-08-30T05:10:29.747Z,83.89
2023-08-30T05:12:57.422Z,83.90
2023-08-30T05:15:25.024Z,84.14
2023-08-30T05:17:52.676Z,83.79
2023-08-30T05:20:20.347Z,83.69
2023-08-30T05:22:47.917Z,84.82
2023-08-30T05:25:17.052Z,84.23
2023-08-30T05:27:44.771Z,83.49
2023-08-30T05:30:13.885Z,86.05
2023-08-30T05:32:41.647Z,86.06
2023-08-30T05:35:10.088Z,86.33
2023-08-30T05:37:37.688Z,86.13
2023-08-30T05:40:06.318Z,85.68
2023-08-30T05:42:36.112Z,87.51
2023-08-30T05:45:05.164Z,88.79
2023-08-30T05:47:33.155Z,88.44
2023-08-30T05:50:00.940Z,87.36
2023-08-30T05:52:28.520Z,87.24
2023-08-30T05:54:56.125Z,88.36
2023-08-30T05:57:24.882Z,89.78
2023-08-30T05:59:53.813Z,89.66
2023-08-30T06:02:21.386Z,89.62
2023-08-30T06:04:48.918Z,89.04
2023-08-30T06:07:16.481Z,90.28
2023-08-30T06:09:44.182Z,90.88
2023-08-30T06:12:11.898Z,90.59
2023-08-30T06:14:39.573Z,89.65
2023-08-30T06:17:08.832Z,87.26
2023-08-30T06:19:36.541Z,88.62
2023-08-30T06:22:04.141Z,86.76
2023-08-30T06:24:31.702Z,87.36
2023-08-30T06:27:00.900Z,89.07
2023-08-30T06:29:28.471Z,87.70
2023-08-30T06:31:56.134Z,85.57
2023-08-30T06:34:25.062Z,84.38
2023-08-30T06:36:52.699Z,85.69
2023-08-30T06:39:20.340Z,85.33
2023-08-30T06:41:48.022Z,86.78
2023-08-30T06:44:15.587Z,85.42
2023-08-30T06:46:43.140Z,86.17
2023-08-30T06:49:11.113Z,84.70
2023-08-30T06:51:40.039Z,82.93
2023-08-30T06:54:07.761Z,82.57
2023-08-30T06:56:35.339Z,82.99
2023-08-30T06:59:03.192Z,84.49
2023-08-30T07:01:30.962Z,83.02
2023-08-30T07:03:58.646Z,81.68
2023-08-30T07:06:30.936Z,80.79
2023-08-30T07:08:59.968Z,80.23
2023-08-30T07:11:33.812Z,80.94
2023-08-30T07:14:02.495Z,81.17
2023-08-30T07:16:30.109Z,81.00
2023-08-30T07:18:57.773Z,82.50
2023-08-30T07:21:27.303Z,84.22
2023-08-30T07:23:55.083Z,81.94
2023-08-30T07:26:24.054Z,80.60
2023-08-30T07:28:51.596Z,81.40
2023-08-30T07:31:19.619Z,79.82
2023-08-30T07:33:47.307Z,78.67
2023-08-30T07:36:16.915Z,81.17
2023-08-30T07:38:44.518Z,81.43
2023-08-30T07:41:13.172Z,80.95
2023-08-30T07:43:42.143Z,79.52
2023-08-30T07:46:09.814Z,78.27
2023-08-30T07:48:37.483Z,79.30
2023-08-30T07:51:05.478Z,80.76
2023-08-30T07:53:33.071Z,79.39
2023-08-30T07:56:00.630Z,77.40
2023-08-30T07:58:28.259Z,77.75
2023-08-30T08:00:57.418Z,77.75
2023-08-30T08:03:25.205Z,77.97
2023-08-30T08:05:52.941Z,75.35
2023-08-30T08:08:20.844Z,75.82
2023-08-30T08:10:48.834Z,75.09
2023-08-30T08:13:16.690Z,74.62
2023-08-30T08:15:45.136Z,75.79
2023-08-30T08:18:14.194Z,75.48
2023-08-30T08:20:41.791Z,73.25
2023-08-30T08:23:09.627Z,73.44
2023-08-30T08:25:37.472Z,75.50
2023-08-30T08:28:08.570Z,75.21
2023-08-30T08:30:37.980Z,72.95
2023-08-30T08:33:06.035Z,75.14
2023-08-30T08:35:34.999Z,73.91
2023-08-30T08:38:02.638Z,74.08
2023-08-30T08:40:41.933Z,73.96
2023-08-30T08:43:12.618Z,71.74
2023-08-30T08:45:40.677Z,70.29
2023-08-30T08:48:09.490Z,73.34
2023-08-30T08:50:39.404Z,70.11
2023-08-30T08:53:08.388Z,70.88
2023-08-30T08:55:37.320Z,70.13
2023-08-30T08:58:06.351Z,71.81
2023-08-30T09:00:34.030Z,70.10
2023-08-30T09:03:02.575Z,69.20
2023-08-30T09:05:31.501Z,70.70
2023-08-30T09:08:00.642Z,72.57
2023-08-30T09:10:28.309Z,71.63
2023-08-30T09:12:55.948Z,70.14
2023-08-30T09:15:23.697Z,70.21
2023-08-30T09:17:51.569Z,69.62
2023-08-30T09:20:21.092Z,70.41
2023-08-30T09:26:10.615Z,71.21
2023-08-30T09:32:32.549Z,69.72
2023-08-30T09:35:12.631Z,70.62
2023-08-30T10:25:11.970Z,65.55
2023-08-30T10:31:20.240Z,62.24
2023-08-30T10:34:01.412Z,63.63
2023-08-30T10:39:24.696Z,64.84
2023-08-30T10:42:00.936Z,63.48
2023-08-30T10:44:28.803Z,62.53
2023-08-30T10:46:57.702Z,61.42
2023-08-30T10:52:03.041Z,64.73
2023-08-30T10:54:39.887Z,62.04
2023-08-30T10:57:15.985Z,60.92
2023-08-30T11:00:06.455Z,61.28
2023-08-30T11:02:34.773Z,59.29
2023-08-30T11:05:04.643Z,59.16
2023-08-30T11:07:33.909Z,60.40
2023-08-30T11:10:02.238Z,59.42
2023-08-30T11:12:32.419Z,58.60
2023-08-30T11:15:00.193Z,58.07
2023-08-30T11:17:29.298Z,58.05
2023-08-30T11:20:07.456Z,59.52
2023-08-30T11:22:35.529Z,59.09
2023-08-30T11:25:05.048Z,58.87
2023-08-30T11:27:34.577Z,56.80
2023-08-30T11:30:03.982Z,58.83
2023-08-30T11:32:35.414Z,59.35
2023-08-30T11:35:03.863Z,58.88
2023-08-30T11:37:32.453Z,58.19
2023-08-30T11:40:01.900Z,57.88
2023-08-30T11:42:30.465Z,57.75
2023-08-30T11:45:14.181Z,56.60
2023-08-30T11:47:45.697Z,57.37
2023-08-30T11:50:19.163Z,57.10
2023-08-30T11:52:47.139Z,56.79
2023-08-30T11:55:16.900Z,55.79
2023-08-30T11:57:46.904Z,55.61
2023-08-30T12:00:25.196Z,54.82
2023-08-30T12:02:54.021Z,54.80
2023-08-30T12:05:22.883Z,54.83
2023-08-30T12:07:51.118Z,54.36
2023-08-30T12:10:21.469Z,55.29
2023-08-30T12:12:49.410Z,53.48
2023-08-30T12:15:19.506Z,53.02
2023-08-30T12:17:47.395Z,53.62
2023-08-30T12:20:21.955Z,51.40
2023-08-30T12:22:52.104Z,53.60
2023-08-30T12:25:24.850Z,52.87
2023-08-30T12:27:54.487Z,53.01
2023-08-30T12:30:24.046Z,53.35
2023-08-30T12:32:52.511Z,52.54
2023-08-30T12:35:20.590Z,52.09
2023-08-30T12:37:48.944Z,51.99
2023-08-30T12:40:17.434Z,51.61
2023-08-30T12:42:45.852Z,51.98
2023-08-30T12:45:21.289Z,49.95
2023-08-30T12:47:50.899Z,51.36
2023-08-30T12:50:23.498Z,50.25
2023-08-30T12:52:51.332Z,51.54
2023-08-30T12:55:21.492Z,52.88
2023-08-30T12:57:49.279Z,52.35
2023-08-30T13:00:20.750Z,51.19
2023-08-30T13:02:49.951Z,50.73
2023-08-30T13:05:21.415Z,51.76
2023-08-30T13:07:49.752Z,51.62
2023-08-30T13:10:18.230Z,51.25
2023-08-30T13:12:46.919Z,50.84
2023-08-30T13:15:15.012Z,52.43
2023-08-30T13:17:43.183Z,50.03
2023-08-30T13:20:13.774Z,49.00
2023-08-30T13:22:43.477Z,48.41
2023-08-30T13:25:12.908Z,49.62
2023-08-30T13:27:42.702Z,49.61
2023-08-30T13:30:13.544Z,49.15
2023-08-30T13:32:44.657Z,50.98
2023-08-30T13:35:23.810Z,48.92
2023-08-30T13:37:56.451Z,50.72
2023-08-30T13:40:25.191Z,49.00
2023-08-30T13:42:54.111Z,49.15
2023-08-30T13:45:22.579Z,49.85
2023-08-30T13:47:58.516Z,51.19
2023-08-30T13:50:31.585Z,49.96
2023-08-30T13:53:04.551Z,50.01
2023-08-30T13:55:34.585Z,50.20
2023-08-30T13:58:07.946Z,48.79
2023-08-30T14:00:38.680Z,48.24
2023-08-30T14:03:09.841Z,48.45
2023-08-30T14:05:41.691Z,47.75
2023-08-30T14:08:15.965Z,47.83
2023-08-30T14:10:46.344Z,47.56
2023-08-30T14:13:14.800Z,47.93
2023-08-30T14:15:46.091Z,47.43
2023-08-30T14:18:15.069Z,47.19
2023-08-30T14:20:45.663Z,48.15
2023-08-30T14:23:15.120Z,50.10
2023-08-30T14:25:45.039Z,50.73
2023-08-30T14:28:13.262Z,50.26
2023-08-30T14:30:43.426Z,52.07
2023-08-30T14:33:12.204Z,49.90
2023-08-30T14:35:45.584Z,50.64
2023-08-30T14:38:14.129Z,47.72
2023-08-30T14:40:42.968Z,52.48
2023-08-30T14:43:11.639Z,48.13
2023-08-30T14:45:40.200Z,48.75
2023-08-30T14:48:10.235Z,51.94
2023-08-30T14:50:43.171Z,48.39
2023-08-30T14:53:13.085Z,50.72
2023-08-30T14:55:44.123Z,49.33
2023-08-30T14:58:12.773Z,48.15
2023-08-30T15:00:43.488Z,51.24
2023-08-30T15:03:11.986Z,48.98
2023-08-30T15:05:41.004Z,49.32
2023-08-30T15:08:09.973Z,52.01
2023-08-30T15:10:41.600Z,50.13
2023-08-30T15:13:10.214Z,52.91
2023-08-30T15:15:43.717Z,54.25
2023-08-30T15:18:15.487Z,54.70
2023-08-30T15:20:48.632Z,54.40
2023-08-30T15:23:18.939Z,55.03
2023-08-30T15:25:48.660Z,53.43
2023-08-30T15:28:16.849Z,53.73
2023-08-30T15:30:44.799Z,54.16
2023-08-30T15:33:13.979Z,52.07
2023-08-30T15:35:43.844Z,52.95
2023-08-30T15:38:13.179Z,54.50
2023-08-30T15:40:40.751Z,54.07
2023-08-30T15:43:10.188Z,53.36
2023-08-30T15:45:38.557Z,52.78
2023-08-30T15:48:07.364Z,53.86
2023-08-30T15:50:35.427Z,52.65
2023-08-30T15:53:02.979Z,55.38
2023-08-30T15:55:31.733Z,56.25
2023-08-30T15:57:59.330Z,57.32
2023-08-30T16:00:28.272Z,55.86
2023-08-30T16:02:59.063Z,61.57
2023-08-30T16:05:26.796Z,58.67
2023-08-30T16:07:54.548Z,56.27
2023-08-30T16:10:22.373Z,56.46
2023-08-30T16:12:49.969Z,57.23
2023-08-30T16:15:17.660Z,59.28
2023-08-30T16:17:46.697Z,60.24
2023-08-30T16:20:14.527Z,57.90
2023-08-30T16:22:43.456Z,59.82
2023-08-30T16:25:11.312Z,58.87
2023-08-30T16:27:39.033Z,58.97
2023-08-30T16:30:07.533Z,59.80
2023-08-30T16:32:35.934Z,58.13
2023-08-30T16:35:05.375Z,59.98
2023-08-30T16:37:33.000Z,59.30
2023-08-30T16:40:00.619Z,58.97
2023-08-30T16:42:28.222Z,59.50
2023-08-30T16:44:56.212Z,57.64
2023-08-30T16:47:23.881Z,58.76
2023-08-30T16:49:51.559Z,57.51
2023-08-30T16:52:20.578Z,56.74
2023-08-30T16:54:48.288Z,60.06
2023-08-30T16:57:15.954Z,58.06
2023-08-30T16:59:43.597Z,60.38
2023-08-30T17:02:11.614Z,61.09
2023-08-30T17:04:39.349Z,61.03
2023-08-30T17:07:07.016Z,58.20
2023-08-30T17:09:39.306Z,60.04
2023-08-30T17:12:07.248Z,61.08
2023-08-30T17:14:34.871Z,62.15
2023-08-30T17:17:03.093Z,62.86
2023-08-30T17:19:30.948Z,61.39
2023-08-30T17:21:58.647Z,61.85
2023-08-30T17:24:26.357Z,65.82
2023-08-30T17:26:55.354Z,65.03
2023-08-30T17:29:22.948Z,65.51
2023-08-30T17:31:50.653Z,63.42
2023-08-30T17:34:18.607Z,65.08
2023-08-30T17:36:48.629Z,63.49
2023-08-30T17:39:16.579Z,64.12
2023-08-30T17:41:44.750Z,64.80
2023-08-30T17:44:13.845Z,63.81
2023-08-30T17:46:43.111Z,62.29
2023-08-30T17:49:12.258Z,65.53
2023-08-30T17:51:41.186Z,63.41
2023-08-30T17:54:09.034Z,65.36
2023-08-30T17:56:36.830Z,63.53
2023-08-30T17:59:04.730Z,67.40
2023-08-30T18:01:33.742Z,67.88
2023-08-30T18:04:02.335Z,65.75
2023-08-30T18:06:30.127Z,68.77
2023-08-30T18:08:59.105Z,66.91
2023-08-30T18:11:28.342Z,67.33
2023-08-30T18:13:56.020Z,65.92
2023-08-30T18:16:26.949Z,66.19
2023-08-30T18:18:57.730Z,64.41
2023-08-30T18:21:26.304Z,63.81
2023-08-30T18:24:24.935Z,66.50
2023-08-30T18:26:53.695Z,66.37
2023-08-30T18:29:21.703Z,64.53
2023-08-30T18:31:49.673Z,64.29
2023-08-30T18:34:19.122Z,64.29
2023-08-30T18:36:47.779Z,64.77
2023-08-30T18:39:16.395Z,64.43
2023-08-30T18:41:44.025Z,64.29
2023-08-30T18:44:12.218Z,64.14
2023-08-30T18:46:39.980Z,64.27
2023-08-30T18:49:07.605Z,64.62
2023-08-30T18:51:37.137Z,64.37
2023-08-30T18:54:06.107Z,64.62
2023-08-30T18:56:34.167Z,64.74
2023-08-30T18:59:02.128Z,64.81
2023-08-30T19:01:31.901Z,65.26
2023-08-30T19:04:00.417Z,65.23
2023-08-30T19:06:28.521Z,65.46
2023-08-30T19:08:57.568Z,65.62
2023-08-30T19:11:25.437Z,65.85
2023-08-30T19:13:53.517Z,65.93
2023-08-30T19:16:22.478Z,66.12
2023-08-30T19:18:50.495Z,66.22
2023-08-30T19:21:20.910Z,66.45
2023-08-30T19:23:49.081Z,66.69
2023-08-30T19:26:18.158Z,66.62
2023-08-30T19:28:46.530Z,66.93
2023-08-30T19:31:14.222Z,67.32
2023-08-30T19:33:41.915Z,67.43
2023-08-30T19:36:09.519Z,67.46
2023-08-30T19:38:37.163Z,67.62
2023-08-30T19:41:05.352Z,67.92
2023-08-30T19:43:35.864Z,67.98
2023-08-30T19:46:04.699Z,67.91
2023-08-30T19:48:35.687Z,68.05
2023-08-30T19:51:03.461Z,67.86
2023-08-30T19:53:31.362Z,67.96
2023-08-30T19:56:01.907Z,67.77
2023-08-30T19:58:29.678Z,68.02
2023-08-30T20:01:05.034Z,68.31
2023-08-30T20:03:33.242Z,68.36
2023-08-30T20:06:01.271Z,68.30
2023-08-30T20:08:30.735Z,68.49
2023-08-30T20:11:04.936Z,74.72
2023-08-30T20:16:26.057Z,70.04
2023-08-30T20:18:54.878Z,70.11
2023-08-30T20:21:22.506Z,70.27
2023-08-30T20:23:50.233Z,70.03
2023-08-30T20:26:20.390Z,69.74
2023-08-30T20:28:50.567Z,72.57
2023-08-30T20:31:18.270Z,71.06
2023-08-30T20:33:49.362Z,74.36
2023-08-30T20:36:17.527Z,73.85
2023-08-30T20:38:46.991Z,74.28
2023-08-30T20:41:14.622Z,74.44
2023-08-30T20:43:42.295Z,72.97
2023-08-30T20:46:11.963Z,71.26
2023-08-30T20:48:39.732Z,71.49
2023-08-30T20:51:08.711Z,71.02
2023-08-30T20:53:37.942Z,71.49
2023-08-30T20:56:09.001Z,71.35
2023-08-30T20:58:40.824Z,71.08
2023-08-30T21:01:08.430Z,70.90
2023-08-30T21:03:36.165Z,72.30
2023-08-30T21:06:05.043Z,74.10
2023-08-30T21:08:36.482Z,72.54
2023-08-30T21:11:04.203Z,72.10
2023-08-30T21:13:31.804Z,72.15
2023-08-30T21:15:59.402Z,72.82
2023-08-30T21:18:27.071Z,73.55
2023-08-30T21:20:57.896Z,79.59
2023-08-30T21:23:25.801Z,77.98
2023-08-30T21:25:55.052Z,79.71
2023-08-30T21:28:23.395Z,77.29
2023-08-30T21:30:51.710Z,77.53
2023-08-30T21:33:20.933Z,79.15
2023-08-30T21:35:49.158Z,79.24
2023-08-30T21:38:18.776Z,78.26
2023-08-30T21:40:47.248Z,80.80
2023-08-30T21:43:17.078Z,80.30
2023-08-30T21:45:45.432Z,79.99
2023-08-30T21:48:13.875Z,79.82
2023-08-30T21:50:41.734Z,80.18
2023-08-30T21:53:09.958Z,81.29
2023-08-30T21:55:38.457Z,81.10
2023-08-30T21:58:06.576Z,81.75
2023-08-30T22:00:36.006Z,80.07
2023-08-30T22:03:03.963Z,81.15
2023-08-30T22:05:32.469Z,81.37
2023-08-30T22:08:00.628Z,80.44
2023-08-30T22:10:28.507Z,79.25
2023-08-30T22:12:57.422Z,79.55
2023-08-30T22:15:25.704Z,79.21
2023-08-30T22:17:54.917Z,80.67
2023-08-30T22:20:23.039Z,79.13
2023-08-30T22:22:51.213Z,81.98
2023-08-30T22:25:20.560Z,79.56
2023-08-30T22:27:48.681Z,78.50
2023-08-30T22:30:17.297Z,80.75
2023-08-30T22:32:45.902Z,81.35
2023-08-30T22:35:16.604Z,82.20
2023-08-30T22:37:45.644Z,82.41
2023-08-30T22:40:13.899Z,82.78
2023-08-30T22:42:42.617Z,81.74
2023-08-30T22:45:11.946Z,79.84
2023-08-30T22:47:40.377Z,78.40
2023-08-30T22:50:09.986Z,78.36
2023-08-30T22:52:39.932Z,79.21
2023-08-30T22:55:09.131Z,80.46
2023-08-30T22:57:37.231Z,78.90
2023-08-30T23:00:08.652Z,79.45
2023-08-30T23:02:37.095Z,79.28
2023-08-30T23:05:07.265Z,80.88
2023-08-30T23:07:35.623Z,80.42
2023-08-30T23:10:06.614Z,79.74
2023-08-30T23:12:35.471Z,78.56
2023-08-30T23:15:03.573Z,79.60
2023-08-30T23:17:31.472Z,81.80
2023-08-30T23:19:59.876Z,81.32
2023-08-30T23:22:27.685Z,80.62
2023-08-30T23:24:55.424Z,80.12
2023-08-30T23:27:25.934Z,79.88
2023-08-30T23:29:53.909Z,80.38
2023-08-30T23:32:21.672Z,80.53
2023-08-30T23:34:49.826Z,80.09
2023-08-30T23:37:17.809Z,81.54
2023-08-30T23:39:45.624Z,83.02
2023-08-30T23:42:13.849Z,83.48
2023-08-30T23:44:43.253Z,82.94
2023-08-30T23:47:11.167Z,83.40
2023-08-30T23:49:39.103Z,83.67
2023-08-30T23:52:07.785Z,83.28
2023-08-30T23:54:36.135Z,84.38
2023-08-30T23:57:04.684Z,83.94
2023-08-30T23:59:32.513Z,83.83
